Time;durP1;ratioP1;P1;durP2;ratioP2;P2;SDS_P1;SDS_P2;PMS_P1;PMS_P2;Temp;Humidity;BMP_temperature;BMP_pressure;BME280_temperature;BME280_humidity;BME280_pressure;Samples;Min_cycle;Max_cycle;Signal;HPM_P1;HPM_P2
2022/06/04 03:04:39;;;;;;;;;;;17.40;63.40;;;;;;4775587;30;19936;-75
2022/06/04 03:07:05;;;;;;;;;;;17.40;64.20;;;;;;4775664;30;20014;-75
2022/06/04 03:09:31;;;;;;;;;;;17.40;64.30;;;;;;4775472;30;19929;-76
2022/06/04 03:11:57;;;;;;;;;;;17.40;64.40;;;;;;4775601;30;19930;-75
2022/06/04 03:14:24;;;;;;;;;;;17.50;64.60;;;;;;4774126;30;19936;-77
2022/06/04 03:16:49;;;;;;;;;;;17.50;64.90;;;;;;4759495;30;20330;-76
2022/06/04 03:19:15;;;;;;;;;;;17.50;65.30;;;;;;4775249;30;20073;-75
2022/06/04 03:21:42;;;;;;;;;;;17.50;65.90;;;;;;4775270;30;20020;-78
2022/06/04 03:24:08;;;;;;;;;;;17.60;65.40;;;;;;4759313;30;19925;-76
2022/06/04 03:26:34;;;;;;;;;;;17.60;65.20;;;;;;4775509;30;20303;-77
2022/06/04 03:29:00;;;;;;;;;;;17.60;65.00;;;;;;4776911;30;19982;-78
2022/06/04 03:31:26;;;;;;;;;;;17.70;64.90;;;;;;4793318;30;19925;-76
2022/06/04 03:33:52;;;;;;;;;;;17.70;65.00;;;;;;4777773;30;20342;-75
2022/06/04 03:36:17;;;;;;;;;;;17.80;64.90;;;;;;4760412;30;19925;-75
2022/06/04 03:38:44;;;;;;;;;;;17.90;65.30;;;;;;4759602;30;19951;-76
2022/06/04 03:41:10;;;;;;;;;;;17.90;65.30;;;;;;4775335;30;20330;-77
2022/06/04 03:43:36;;;;;;;;;;;18.00;65.20;;;;;;4775490;30;19925;-76
2022/06/04 03:46:01;;;;;;;;;;;18.10;65.30;;;;;;4774683;30;20406;-80
2022/06/04 03:48:27;;;;;;;;;;;18.10;65.30;;;;;;4737965;30;19926;-79
2022/06/04 03:50:52;;;;;;;;;;;18.20;65.20;;;;;;4772318;30;20070;-78
2022/06/04 03:53:18;;;;;;;;;;;18.20;65.10;;;;;;4758981;30;19921;-78
2022/06/04 03:55:44;;;;;;;;;;;18.10;61.00;;;;;;4774784;30;19929;-76
2022/06/04 03:58:09;;;;;;;;;;;18.10;64.80;;;;;;4774863;30;19934;-79
2022/06/04 04:00:37;;;;;;;;;;;18.10;65.40;;;;;;4744653;30;20341;-80
2022/06/04 04:03:04;;;;;;;;;;;18.10;65.50;;;;;;4765726;30;20381;-77
2022/06/04 04:05:31;;;;;;;;;;;18.10;65.40;;;;;;4792532;30;19951;-78
2022/06/04 04:07:57;;;;;;;;;;;18.10;65.60;;;;;;4792649;30;19921;-77
2022/06/04 04:10:47;;;;;;;;;;;18.20;65.80;;;;;;4792411;30;19936;-81
2022/06/04 04:13:14;;;;;;;;;;;18.20;65.40;;;;;;4790437;30;19928;-80
2022/06/04 04:15:40;;;;;;;;;;;18.20;65.90;;;;;;4776367;30;20295;-78
2022/06/04 04:18:06;;;;;;;;;;;18.20;65.30;;;;;;4792368;30;19933;-79
2022/06/04 04:20:33;;;;;;;;;;;18.20;65.30;;;;;;4792388;30;20277;-78
2022/06/04 04:22:59;;;;;;;;;;;18.20;65.20;;;;;;4792715;30;19965;-75
2022/06/04 04:25:26;;;;;;;;;;;18.20;65.10;;;;;;4775982;30;19933;-75
2022/06/04 04:27:52;;;;;;;;;;;18.20;65.00;;;;;;4791612;30;19925;-78
2022/06/04 04:30:19;;;;;;;;;;;18.20;64.90;;;;;;4793103;29;19925;-74
2022/06/04 04:32:45;;;;;;;;;;;18.20;64.70;;;;;;4776585;30;19922;-77
2022/06/04 04:35:15;;;;;;;;;;;18.20;64.60;;;;;;4775777;30;20330;-75
2022/06/04 04:37:42;;;;;;;;;;;18.20;64.40;;;;;;4791967;30;19929;-76
2022/06/04 04:40:08;;;;;;;;;;;18.10;64.30;;;;;;4792295;30;19925;-78
2022/06/04 04:42:33;;;;;;;;;;;18.20;64.30;;;;;;4792036;30;20070;-75
2022/06/04 04:44:59;;;;;;;;;;;18.20;64.40;;;;;;4792170;30;20360;-78
2022/06/04 04:47:25;;;;;;;;;;;18.20;64.50;;;;;;4776244;30;20012;-76
2022/06/04 04:49:50;;;;;;;;;;;18.20;64.80;;;;;;4776285;30;19925;-78
2022/06/04 04:52:16;;;;;;;;;;;18.10;64.70;;;;;;4775734;30;19921;-77
2022/06/04 04:54:42;;;;;;;;;;;18.10;64.70;;;;;;4792053;30;20261;-77
2022/06/04 04:57:07;;;;;;;;;;;18.10;64.80;;;;;;4791821;30;20299;-76
2022/06/04 04:59:33;;;;;;;;;;;18.10;64.80;;;;;;4792173;30;19937;-76
2022/06/04 05:01:59;;;;;;;;;;;18.10;64.70;;;;;;4792122;30;19933;-81
2022/06/04 05:04:24;;;;;;;;;;;18.10;64.90;;;;;;4763275;29;19948;-74
2022/06/04 05:06:50;;;;;;;;;;;18.10;65.00;;;;;;4808232;29;20345;-73
2022/06/04 05:09:15;;;;;;;;;;;18.10;65.10;;;;;;4809423;29;19924;-76
2022/06/04 05:11:41;;;;;;;;;;;18.10;65.10;;;;;;4793141;29;19921;-78
2022/06/04 05:14:07;;;;;;;;;;;18.20;65.30;;;;;;4809501;29;20038;-77
2022/06/04 05:16:34;;;;;;;;;;;18.20;65.30;;;;;;4809672;29;19932;-75
2022/06/04 05:19:01;;;;;;;;;;;18.20;65.20;;;;;;4808711;29;20371;-75
2022/06/04 05:21:36;;;;;;;;;;;18.20;65.20;;;;;;4808302;29;19921;-75
2022/06/04 05:24:02;;;;;;;;;;;18.20;65.00;;;;;;4790326;30;19921;-77
2022/06/04 05:26:28;;;;;;;;;;;18.20;64.80;;;;;;4805785;29;19932;-76
2022/06/04 05:28:53;;;;;;;;;;;18.20;64.70;;;;;;4809225;29;20264;-77
2022/06/04 05:31:19;;;;;;;;;;;18.20;64.60;;;;;;4792615;29;19925;-78
2022/06/04 05:33:45;;;;;;;;;;;18.20;64.60;;;;;;4806312;29;20025;-75
2022/06/04 05:36:11;;;;;;;;;;;18.20;64.00;;;;;;4791515;30;20316;-73
2022/06/04 05:38:40;;;;;;;;;;;18.20;64.60;;;;;;4791185;30;19936;-73
2022/06/04 05:41:07;;;;;;;;;;;18.10;64.80;;;;;;4790975;30;20344;-72
2022/06/04 05:43:33;;;;;;;;;;;18.10;64.70;;;;;;4804961;29;19986;-74
2022/06/04 05:45:59;;;;;;;;;;;18.10;63.50;;;;;;4791090;30;19929;-75
2022/06/04 05:48:25;;;;;;;;;;;18.10;64.50;;;;;;4791207;30;20359;-72
2022/06/04 05:50:51;;;;;;;;;;;18.20;64.50;;;;;;4773323;29;19925;-72
2022/06/04 05:53:17;;;;;;;;;;;18.10;61.20;;;;;;4793276;29;19978;-75
2022/06/04 05:55:43;;;;;;;;;;;17.90;61.70;;;;;;4809518;29;19933;-74
2022/06/04 05:58:08;;;;;;;;;;;17.80;62.20;;;;;;4793022;29;20341;-77
2022/06/04 06:00:34;;;;;;;;;;;18.00;65.20;;;;;;4793660;29;19925;-75
2022/06/04 06:02:59;;;;;;;;;;;18.20;65.30;;;;;;4796798;29;20261;-74
2022/06/04 06:05:25;;;;;;;;;;;18.10;62.50;;;;;;4808026;29;20069;-77
2022/06/04 06:07:51;;;;;;;;;;;18.10;65.00;;;;;;4826345;29;20032;-78
2022/06/04 06:10:16;;;;;;;;;;;18.30;65.20;;;;;;4811060;29;19932;-75
2022/06/04 06:12:42;;;;;;;;;;;18.40;65.20;;;;;;4827316;29;19932;-74
2022/06/04 06:15:08;;;;;;;;;;;18.50;65.00;;;;;;4827030;29;19928;-75
2022/06/04 06:17:34;;;;;;;;;;;18.60;65.00;;;;;;4826991;29;19924;-77
2022/06/04 06:19:59;;;;;;;;;;;18.60;64.90;;;;;;4827555;29;20237;-74
2022/06/04 06:22:25;;;;;;;;;;;18.60;62.70;;;;;;4813176;29;20351;-75
2022/06/04 06:24:50;;;;;;;;;;;18.50;63.30;;;;;;4793384;29;19935;-76
2022/06/04 06:27:16;;;;;;;;;;;18.50;63.60;;;;;;4808500;29;19972;-74
2022/06/04 06:29:42;;;;;;;;;;;18.30;63.50;;;;;;4808542;29;19936;-75
2022/06/04 06:32:07;;;;;;;;;;;18.20;63.80;;;;;;4808619;29;19948;-77
2022/06/04 06:34:33;;;;;;;;;;;18.10;64.20;;;;;;4808476;29;19986;-76
2022/06/04 06:36:59;;;;;;;;;;;18.10;64.30;;;;;;4808929;29;19925;-77
2022/06/04 06:39:24;;;;;;;;;;;18.10;66.70;;;;;;4809063;29;19925;-75
2022/06/04 06:41:50;;;;;;;;;;;18.30;67.00;;;;;;4807977;29;20301;-76
2022/06/04 06:44:16;;;;;;;;;;;18.30;66.70;;;;;;4820627;29;19925;-76
2022/06/04 06:46:43;;;;;;;;;;;18.40;67.00;;;;;;4826824;29;19928;-75
2022/06/04 06:49:14;;;;;;;;;;;18.50;67.50;;;;;;4826869;29;19932;-78
2022/06/04 06:51:42;;;;;;;;;;;18.60;67.50;;;;;;4826445;29;19997;-75
2022/06/04 06:54:08;;;;;;;;;;;18.60;67.30;;;;;;4795513;29;20005;-76
2022/06/04 06:56:36;;;;;;;;;;;18.60;66.90;;;;;;4826376;29;19932;-76
2022/06/04 06:59:03;;;;;;;;;;;18.60;64.90;;;;;;4810504;29;19924;-77
2022/06/04 07:01:36;;;;;;;;;;;18.60;64.80;;;;;;4795103;29;19982;-78
2022/06/04 07:04:02;;;;;;;;;;;18.50;62.70;;;;;;4826033;29;19931;-76
2022/06/04 07:06:27;;;;;;;;;;;18.30;64.30;;;;;;4823096;29;19924;-76
2022/06/04 07:08:53;;;;;;;;;;;18.40;67.60;;;;;;4810312;29;20020;-77
2022/06/04 07:11:19;;;;;;;;;;;18.50;68.00;;;;;;4826480;29;20393;-78
2022/06/04 07:13:44;;;;;;;;;;;18.50;66.00;;;;;;4795358;29;19964;-76
2022/06/04 07:16:13;;;;;;;;;;;18.60;67.40;;;;;;4826025;29;19936;-76
2022/06/04 07:18:45;;;;;;;;;;;18.60;67.30;;;;;;4809882;29;19925;-76
2022/06/04 07:21:10;;;;;;;;;;;18.60;67.60;;;;;;4826192;29;20325;-79
2022/06/04 07:23:37;;;;;;;;;;;18.60;66.70;;;;;;4826395;29;19920;-78
2022/06/04 07:26:03;;;;;;;;;;;18.70;67.70;;;;;;4826225;29;19921;-76
2022/06/04 07:28:29;;;;;;;;;;;18.70;68.10;;;;;;4809942;29;19920;-80
2022/06/04 07:30:54;;;;;;;;;;;18.70;68.10;;;;;;4818187;29;19993;-77
2022/06/04 07:33:20;;;;;;;;;;;18.70;67.60;;;;;;4792443;29;19929;-76
2022/06/04 07:35:47;;;;;;;;;;;18.80;67.10;;;;;;4810614;29;19925;-78
2022/06/04 07:38:13;;;;;;;;;;;18.90;67.10;;;;;;4811331;29;19921;-79
2022/06/04 07:40:39;;;;;;;;;;;18.80;66.90;;;;;;4795099;29;19920;-78
2022/06/04 07:43:05;;;;;;;;;;;18.90;66.80;;;;;;4811166;29;19928;-77
2022/06/04 07:45:30;;;;;;;;;;;18.80;66.30;;;;;;4795084;29;19975;-77
2022/06/04 07:47:56;;;;;;;;;;;18.90;66.20;;;;;;4803753;29;19925;-79
2022/06/04 07:50:21;;;;;;;;;;;18.90;66.00;;;;;;4811394;29;20023;-79
2022/06/04 07:52:47;;;;;;;;;;;18.90;66.00;;;;;;4795262;29;19925;-78
2022/06/04 07:55:13;;;;;;;;;;;18.90;66.00;;;;;;4794650;29;19925;-78
2022/06/04 07:57:38;;;;;;;;;;;18.90;66.10;;;;;;4810497;29;19933;-78
2022/06/04 08:00:05;;;;;;;;;;;19.00;66.40;;;;;;4814208;29;19982;-78
2022/06/04 08:02:31;;;;;;;;;;;19.00;66.40;;;;;;4799804;29;19925;-77
2022/06/04 08:04:56;;;;;;;;;;;19.00;66.40;;;;;;4795446;29;19995;-80
2022/06/04 08:07:23;;;;;;;;;;;19.00;66.40;;;;;;4794815;29;19925;-78
2022/06/04 08:09:49;;;;;;;;;;;19.00;66.40;;;;;;4795673;29;20321;-78
2022/06/04 08:12:15;;;;;;;;;;;19.00;66.50;;;;;;4810954;29;19983;-79
2022/06/04 08:14:50;;;;;;;;;;;19.00;64.50;;;;;;4810236;29;19929;-86
2022/06/04 08:17:15;;;;;;;;;;;19.00;66.30;;;;;;4793868;29;19972;-78
2022/06/04 08:19:41;;;;;;;;;;;19.00;66.90;;;;;;4795792;29;20352;-77
2022/06/04 08:22:07;;;;;;;;;;;19.10;66.50;;;;;;4828601;29;19931;-77
2022/06/04 08:24:33;;;;;;;;;;;19.10;67.20;;;;;;4806843;29;19931;-77
2022/06/04 08:26:59;;;;;;;;;;;19.10;67.00;;;;;;4809547;29;19925;-77
2022/06/04 08:29:30;;;;;;;;;;;19.10;63.10;;;;;;4794521;29;19960;-77
2022/06/04 08:31:57;;;;;;;;;;;19.00;63.80;;;;;;4810661;29;19993;-76
2022/06/04 08:34:22;;;;;;;;;;;19.00;65.90;;;;;;4810422;29;19925;-78
2022/06/04 08:36:48;;;;;;;;;;;19.10;67.20;;;;;;4810442;29;19925;-80
2022/06/04 08:39:14;;;;;;;;;;;19.10;67.00;;;;;;4779098;29;19932;-75
2022/06/04 08:41:42;;;;;;;;;;;19.10;65.70;;;;;;4778975;29;19920;-77
2022/06/04 08:44:14;;;;;;;;;;;19.20;65.20;;;;;;4810311;29;19921;-77
2022/06/04 08:47:06;;;;;;;;;;;19.10;62.90;;;;;;4793235;29;20355;-77
2022/06/04 08:49:33;;;;;;;;;;;19.10;62.50;;;;;;4759912;29;19932;-78
2022/06/04 08:52:08;;;;;;;;;;;19.00;62.90;;;;;;4809932;29;19936;-77
2022/06/04 08:57:35;;;;;;;;;;;18.90;63.30;;;;;;4809957;29;19925;-77
2022/06/04 09:00:07;;;;;;;;;;;18.90;62.90;;;;;;4810031;29;20386;-78
2022/06/04 09:02:42;;;;;;;;;;;18.80;63.40;;;;;;4809260;29;19925;-77
2022/06/04 09:05:17;;;;;;;;;;;18.80;63.60;;;;;;4810127;29;19925;-78
2022/06/04 09:07:49;;;;;;;;;;;18.80;64.30;;;;;;4810443;29;19959;-78
2022/06/04 09:10:22;;;;;;;;;;;18.80;63.80;;;;;;4810008;29;19932;-78
2022/06/04 09:12:48;;;;;;;;;;;18.80;63.60;;;;;;4794224;29;19972;-77
2022/06/04 09:15:30;;;;;;;;;;;18.80;63.20;;;;;;4793714;29;19979;-78
2022/06/04 09:17:57;;;;;;;;;;;18.70;63.10;;;;;;4809606;29;19990;-77
2022/06/04 09:20:43;;;;;;;;;;;18.70;63.00;;;;;;4809637;29;19935;-79
2022/06/04 09:23:19;;;;;;;;;;;18.70;62.90;;;;;;4793775;29;19924;-78
2022/06/04 09:25:46;;;;;;;;;;;18.70;62.30;;;;;;4795550;29;19925;-79
2022/06/04 09:28:15;;;;;;;;;;;18.70;63.00;;;;;;4809289;29;20345;-78
2022/06/04 09:30:44;;;;;;;;;;;18.70;63.00;;;;;;4793533;29;20356;-78
2022/06/04 09:33:28;;;;;;;;;;;18.70;63.40;;;;;;4809501;29;19925;-78
2022/06/04 09:35:54;;;;;;;;;;;18.70;63.10;;;;;;4809229;29;19924;-77
2022/06/04 09:38:25;;;;;;;;;;;18.70;62.90;;;;;;4809615;29;19963;-79
2022/06/04 09:41:04;;;;;;;;;;;18.70;62.70;;;;;;4793474;29;19929;-78
2022/06/04 09:43:30;;;;;;;;;;;18.70;62.80;;;;;;4808948;29;20358;-78
2022/06/04 09:45:58;;;;;;;;;;;18.70;62.80;;;;;;4809105;29;19925;-78
2022/06/04 09:48:33;;;;;;;;;;;18.60;62.50;;;;;;4809203;29;20328;-78
2022/06/04 09:51:01;;;;;;;;;;;18.70;63.40;;;;;;4808827;29;20020;-78
2022/06/04 09:53:28;;;;;;;;;;;18.70;63.00;;;;;;4792465;29;19932;-77
2022/06/04 09:55:56;;;;;;;;;;;18.60;61.90;;;;;;4808903;29;20259;-79
2022/06/04 09:58:30;;;;;;;;;;;18.60;63.00;;;;;;4808766;29;19925;-77
2022/06/04 10:01:00;;;;;;;;;;;18.70;63.40;;;;;;4792716;29;20360;-79
2022/06/04 10:03:27;;;;;;;;;;;18.70;63.00;;;;;;4774667;30;19925;-78
2022/06/04 10:06:07;;;;;;;;;;;18.70;62.60;;;;;;4791014;30;19925;-78
2022/06/04 10:09:55;;;;;;;;;;;18.70;61.60;;;;;;4790035;30;19925;-78
2022/06/04 10:11:23;;;;;;;;;;;18.70;62.20;;;;;;4790592;30;19929;-79
2022/06/04 10:13:50;;;;;;;;;;;18.70;62.30;;;;;;4790518;30;19925;-79
2022/06/04 10:16:34;;;;;;;;;;;18.70;62.10;;;;;;4790610;30;19991;-79
2022/06/04 10:19:14;;;;;;;;;;;18.80;62.10;;;;;;4790683;30;19925;-79
2022/06/04 10:21:41;;;;;;;;;;;18.70;62.00;;;;;;4774543;30;19925;-79
2022/06/04 10:24:20;;;;;;;;;;;18.70;61.90;;;;;;4760022;30;19982;-77
2022/06/04 10:27:04;;;;;;;;;;;18.70;62.20;;;;;;4790351;30;19941;-76
2022/06/04 10:29:36;;;;;;;;;;;18.70;62.10;;;;;;4790598;30;19947;-78
2022/06/04 10:32:10;;;;;;;;;;;18.80;62.50;;;;;;4797573;29;19929;-77
2022/06/04 10:34:36;;;;;;;;;;;18.80;62.50;;;;;;4791949;29;19932;-76
2022/06/04 10:37:20;;;;;;;;;;;18.90;62.60;;;;;;4808316;29;20241;-77
2022/06/04 10:39:54;;;;;;;;;;;18.90;62.70;;;;;;4808453;29;19944;-76
2022/06/04 10:42:32;;;;;;;;;;;18.90;63.00;;;;;;4792331;29;19925;-79
2022/06/04 10:45:07;;;;;;;;;;;18.90;63.10;;;;;;4808157;29;19925;-77
2022/06/04 10:47:57;;;;;;;;;;;19.00;63.50;;;;;;4792349;29;20277;-78
2022/06/04 10:51:25;;;;;;;;;;;19.00;64.00;;;;;;4783655;29;19929;-79
2022/06/04 10:53:35;;;;;;;;;;;19.00;64.00;;;;;;4808683;29;19932;-79
2022/06/04 10:56:04;;;;;;;;;;;19.10;64.00;;;;;;4776766;29;19986;-79
2022/06/04 10:58:38;;;;;;;;;;;19.10;64.20;;;;;;4792514;29;19932;-76
2022/06/04 11:01:14;;;;;;;;;;;19.10;64.60;;;;;;4808187;29;19921;-77
2022/06/04 11:03:43;;;;;;;;;;;19.10;64.40;;;;;;4807415;29;19933;-77
2022/06/04 11:06:17;;;;;;;;;;;19.10;64.50;;;;;;4807909;29;20349;-78
2022/06/04 11:08:48;;;;;;;;;;;19.20;64.40;;;;;;4792236;29;19921;-77
2022/06/04 11:11:27;;;;;;;;;;;19.10;64.50;;;;;;4811999;29;19978;-79
2022/06/04 11:13:55;;;;;;;;;;;19.10;64.40;;;;;;4811373;29;20322;-76
2022/06/04 11:16:31;;;;;;;;;;;19.20;64.30;;;;;;4796451;29;19947;-79
2022/06/04 11:19:02;;;;;;;;;;;19.20;64.40;;;;;;4812231;29;19925;-78
2022/06/04 11:21:34;;;;;;;;;;;19.20;64.80;;;;;;4811643;29;19925;-78
2022/06/04 11:24:20;;;;;;;;;;;19.20;64.60;;;;;;4795060;29;20011;-78
2022/06/04 11:26:48;;;;;;;;;;;19.20;64.70;;;;;;4781235;29;19932;-78
2022/06/04 11:29:14;;;;;;;;;;;19.20;64.70;;;;;;4781159;29;20028;-78
2022/06/04 11:31:45;;;;;;;;;;;19.20;64.70;;;;;;4810612;29;20426;-77
2022/06/04 11:34:29;;;;;;;;;;;19.20;64.60;;;;;;4795802;29;19955;-76
2022/06/04 11:36:55;;;;;;;;;;;19.20;64.70;;;;;;4811085;29;19924;-76
2022/06/04 11:39:29;;;;;;;;;;;19.20;64.90;;;;;;4795613;29;19939;-76
2022/06/04 11:42:00;;;;;;;;;;;19.20;64.80;;;;;;4780836;29;20348;-76
2022/06/04 11:44:45;;;;;;;;;;;19.30;65.00;;;;;;4795466;29;20362;-76
2022/06/04 11:47:19;;;;;;;;;;;19.30;65.20;;;;;;4796013;29;19929;-75
2022/06/04 11:49:56;;;;;;;;;;;19.20;65.30;;;;;;4780966;29;20349;-77
2022/06/04 11:52:27;;;;;;;;;;;19.30;65.40;;;;;;4780381;29;20032;-78
2022/06/04 11:55:12;;;;;;;;;;;19.30;65.30;;;;;;4811328;29;19929;-78
2022/06/04 11:57:56;;;;;;;;;;;19.30;66.50;;;;;;4811005;29;19962;-76
2022/06/04 12:00:42;;;;;;;;;;;19.30;67.00;;;;;;4810916;29;19925;-77
2022/06/04 12:03:26;;;;;;;;;;;19.30;66.90;;;;;;4809882;29;20328;-76
2022/06/04 12:06:01;;;;;;;;;;;19.30;66.90;;;;;;4794864;29;19929;-79
2022/06/04 12:08:30;;;;;;;;;;;19.30;67.20;;;;;;4811087;29;20242;-76
2022/06/04 12:11:15;;;;;;;;;;;19.30;67.20;;;;;;4795176;29;20238;-79
2022/06/04 12:13:47;;;;;;;;;;;19.30;67.40;;;;;;4811448;29;20023;-78
2022/06/04 12:16:21;;;;;;;;;;;19.30;67.60;;;;;;4810781;29;19925;-76
2022/06/04 12:18:56;;;;;;;;;;;19.30;66.60;;;;;;4810538;29;19925;-76
2022/06/04 12:24:29;;;;;;;;;;;19.40;68.40;;;;;;4810808;29;20278;-79
2022/06/04 12:27:13;;;;;;;;;;;19.40;67.20;;;;;;4810310;29;19972;-79
2022/06/04 12:29:49;;;;;;;;;;;19.30;66.90;;;;;;4811020;29;19925;-75
2022/06/04 12:32:20;;;;;;;;;;;19.40;67.70;;;;;;4810176;29;20000;-75
2022/06/04 12:34:45;;;;;;;;;;;19.40;67.30;;;;;;4811132;29;19925;-74
2022/06/04 12:37:27;;;;;;;;;;;19.40;67.00;;;;;;4794432;29;20012;-76
2022/06/04 12:39:53;;;;;;;;;;;19.40;67.60;;;;;;4810183;29;20247;-79
2022/06/04 12:42:23;;;;;;;;;;;19.40;68.70;;;;;;4810131;29;19921;-79
2022/06/04 12:44:57;;;;;;;;;;;19.40;68.50;;;;;;4810230;29;19921;-78
2022/06/04 12:47:27;;;;;;;;;;;19.40;65.10;;;;;;4794104;29;19921;-79
2022/06/04 12:50:10;;;;;;;;;;;19.30;64.00;;;;;;4779559;29;19932;-78
2022/06/04 12:53:08;;;;;;;;;;;19.30;63.80;;;;;;4774867;29;20008;-79
2022/06/04 12:55:38;;;;;;;;;;;19.20;63.90;;;;;;4792750;29;19972;-79
2022/06/04 12:58:23;;;;;;;;;;;19.20;64.20;;;;;;4790818;29;19925;-78
2022/06/04 13:00:59;;;;;;;;;;;19.30;65.20;;;;;;4791696;30;19921;-77
2022/06/04 13:03:45;;;;;;;;;;;19.20;65.10;;;;;;4806249;29;19985;-79
2022/06/04 13:06:26;;;;;;;;;;;19.20;66.10;;;;;;4792983;29;19921;-77
2022/06/04 13:09:01;;;;;;;;;;;19.20;66.80;;;;;;4809713;29;20378;-78
2022/06/04 13:11:45;;;;;;;;;;;19.30;66.10;;;;;;4793586;29;19931;-79
2022/06/04 13:14:14;;;;;;;;;;;19.30;66.60;;;;;;4809525;29;20344;-79
2022/06/04 13:16:50;;;;;;;;;;;19.30;67.00;;;;;;4793379;29;20019;-78
2022/06/04 13:19:35;;;;;;;;;;;19.30;67.00;;;;;;4793685;29;19935;-78
2022/06/04 13:22:03;;;;;;;;;;;19.30;67.10;;;;;;4809257;29;19929;-78
2022/06/04 13:24:32;;;;;;;;;;;19.30;67.10;;;;;;4809318;29;19964;-80
2022/06/04 13:27:02;;;;;;;;;;;19.30;67.30;;;;;;4793093;29;20010;-78
2022/06/04 13:29:35;;;;;;;;;;;19.30;66.90;;;;;;4815140;29;20034;-81
2022/06/04 13:32:15;;;;;;;;;;;19.30;68.10;;;;;;4809145;29;19929;-79
2022/06/04 13:34:40;;;;;;;;;;;19.30;67.20;;;;;;4809041;29;19935;-79
2022/06/04 13:37:19;;;;;;;;;;;19.30;67.40;;;;;;4801588;29;19929;-74
2022/06/04 13:39:49;;;;;;;;;;;19.30;67.90;;;;;;4808777;29;19975;-76
2022/06/04 13:42:26;;;;;;;;;;;19.30;67.40;;;;;;4809012;29;19968;-77
2022/06/04 13:44:53;;;;;;;;;;;19.40;67.40;;;;;;4795320;29;19921;-80
2022/06/04 13:47:20;;;;;;;;;;;19.30;67.00;;;;;;4790690;30;20004;-79
2022/06/04 13:49:48;;;;;;;;;;;19.30;66.00;;;;;;4789264;29;19932;-76
2022/06/04 13:52:13;;;;;;;;;;;19.30;67.70;;;;;;4792690;29;20367;-79
2022/06/04 13:54:48;;;;;;;;;;;19.30;66.30;;;;;;4791932;29;19925;-78
2022/06/04 13:57:18;;;;;;;;;;;19.30;65.80;;;;;;4808434;29;20329;-77
2022/06/04 13:59:45;;;;;;;;;;;19.30;65.20;;;;;;4803707;29;19928;-78
2022/06/04 14:02:18;;;;;;;;;;;19.30;66.40;;;;;;4798967;29;19998;-76
2022/06/04 14:07:39;;;;;;;;;;;19.30;68.10;;;;;;4797269;29;19925;-77
2022/06/04 14:10:25;;;;;;;;;;;19.30;67.10;;;;;;4803463;29;19925;-76
2022/06/04 14:13:00;;;;;;;;;;;19.30;65.70;;;;;;4796000;29;19928;-75
2022/06/04 14:15:25;;;;;;;;;;;19.30;65.90;;;;;;4782333;30;19929;-77
2022/06/04 14:17:57;;;;;;;;;;;19.30;65.30;;;;;;4798841;29;20359;-75
2022/06/04 14:20:40;;;;;;;;;;;19.30;65.70;;;;;;4804348;29;20083;-77
2022/06/04 14:23:25;;;;;;;;;;;19.30;65.90;;;;;;4800832;29;19925;-76
2022/06/04 14:26:07;;;;;;;;;;;19.30;65.70;;;;;;4787363;29;19975;-79
2022/06/04 14:28:36;;;;;;;;;;;19.30;65.60;;;;;;4808840;29;19925;-75
2022/06/04 14:31:10;;;;;;;;;;;19.30;66.50;;;;;;4800689;29;20008;-79
2022/06/04 14:33:39;;;;;;;;;;;19.40;67.10;;;;;;4792524;29;19982;-77
2022/06/04 14:36:06;;;;;;;;;;;19.40;66.70;;;;;;4802469;29;19961;-77
2022/06/04 14:38:34;;;;;;;;;;;19.40;66.60;;;;;;4792757;29;19931;-74
2022/06/04 14:41:21;;;;;;;;;;;19.40;67.70;;;;;;4801106;29;19926;-78
2022/06/04 14:43:49;;;;;;;;;;;19.40;65.90;;;;;;4802249;29;19925;-77
2022/06/04 14:46:34;;;;;;;;;;;19.40;68.20;;;;;;4793159;29;19948;-77
2022/06/04 14:49:09;;;;;;;;;;;19.40;67.20;;;;;;4801265;29;19931;-79
2022/06/04 14:51:35;;;;;;;;;;;19.50;69.20;;;;;;4785391;29;19990;-83
2022/06/04 14:54:03;;;;;;;;;;;19.50;68.50;;;;;;4804342;29;19941;-77
2022/06/04 14:56:47;;;;;;;;;;;19.50;70.00;;;;;;4789187;29;20371;-79
2022/06/04 14:59:13;;;;;;;;;;;19.50;69.30;;;;;;4783209;29;19968;-78
2022/06/04 15:01:50;;;;;;;;;;;19.50;69.80;;;;;;4796210;29;19965;-80
2022/06/04 15:04:41;;;;;;;;;;;19.50;70.10;;;;;;4804974;29;20015;-80
2022/06/04 15:07:19;;;;;;;;;;;19.50;68.50;;;;;;4782207;29;19931;-79
2022/06/04 15:09:58;;;;;;;;;;;19.50;68.30;;;;;;4779948;30;19937;-82
2022/06/04 15:12:42;;;;;;;;;;;19.50;67.90;;;;;;4804818;29;19925;-82
2022/06/04 15:15:28;;;;;;;;;;;19.60;69.10;;;;;;4797959;29;19935;-80
2022/06/04 15:18:24;;;;;;;;;;;19.50;69.60;;;;;;4794334;29;19932;-79
2022/06/04 15:20:59;;;;;;;;;;;19.50;70.10;;;;;;4744622;30;20022;-79
2022/06/04 15:23:24;;;;;;;;;;;19.50;70.40;;;;;;4784020;29;19925;-80
2022/06/04 15:25:56;;;;;;;;;;;19.50;70.60;;;;;;4807916;29;20012;-77
2022/06/04 16:30:18;;;;;;;;;;;19.70;71.70;;;;;;5254925;24;19932;-73
2022/06/04 16:33:03;;;;;;;;;;;19.70;70.70;;;;;;4812433;29;20337;-73
2022/06/04 16:35:30;;;;;;;;;;;19.70;68.80;;;;;;4816345;29;19959;-74
2022/06/04 16:38:19;;;;;;;;;;;19.70;67.80;;;;;;4828478;29;20302;-74
2022/06/04 16:43:31;;;;;;;;;;;19.80;69.40;;;;;;4828956;29;20031;-74
2022/06/04 16:45:58;;;;;;;;;;;19.80;68.60;;;;;;4828551;29;20350;-73
2022/06/04 16:48:25;;;;;;;;;;;19.80;67.60;;;;;;4828189;29;19993;-75
2022/06/04 16:50:51;;;;;;;;;;;19.80;66.80;;;;;;4823242;29;19929;-74
2022/06/04 16:53:17;;;;;;;;;;;19.80;66.80;;;;;;4794325;29;19925;-72
2022/06/04 16:55:43;;;;;;;;;;;19.90;66.20;;;;;;4793909;29;19925;-76
2022/06/04 16:58:09;;;;;;;;;;;19.90;67.90;;;;;;4810570;29;19982;-77
2022/06/04 17:00:53;;;;;;;;;;;19.90;68.10;;;;;;4809818;29;19933;-77
2022/06/04 17:03:22;;;;;;;;;;;19.90;69.10;;;;;;4809629;29;19967;-76
2022/06/04 17:05:47;;;;;;;;;;;19.90;68.00;;;;;;4808662;29;19921;-77
2022/06/04 17:08:22;;;;;;;;;;;19.90;67.60;;;;;;4808950;29;19932;-77
2022/06/04 17:10:59;;;;;;;;;;;19.90;67.30;;;;;;4797041;29;19921;-77
2022/06/04 17:13:28;;;;;;;;;;;20.00;66.70;;;;;;4827467;29;19929;-77
2022/06/04 17:15:57;;;;;;;;;;;20.00;66.50;;;;;;4811188;29;19925;-77
2022/06/04 17:18:30;;;;;;;;;;;19.90;66.30;;;;;;4827939;29;19951;-77
2022/06/04 17:21:01;;;;;;;;;;;19.90;65.40;;;;;;4823475;29;19925;-79
2022/06/04 17:23:47;;;;;;;;;;;20.00;65.80;;;;;;4809836;29;19936;-77
2022/06/04 17:26:18;;;;;;;;;;;20.00;65.90;;;;;;4808016;29;20349;-79
2022/06/04 17:28:59;;;;;;;;;;;20.00;65.40;;;;;;4808718;29;19925;-78
2022/06/04 17:31:38;;;;;;;;;;;20.00;65.00;;;;;;4824878;29;20360;-79
2022/06/04 17:34:07;;;;;;;;;;;20.00;64.50;;;;;;4845830;29;19924;-78
2022/06/04 17:36:39;;;;;;;;;;;20.00;65.00;;;;;;4799436;29;19932;-79
2022/06/04 17:39:17;;;;;;;;;;;20.00;65.50;;;;;;4811334;29;19936;-76
2022/06/04 17:41:48;;;;;;;;;;;20.00;65.60;;;;;;4811168;29;19932;-78
2022/06/04 17:44:14;;;;;;;;;;;19.90;65.30;;;;;;4827454;29;19927;-78
2022/06/04 17:46:39;;;;;;;;;;;19.90;66.70;;;;;;4826592;29;20264;-79
2022/06/04 17:49:05;;;;;;;;;;;20.00;66.30;;;;;;4808793;29;19921;-78
2022/06/04 17:51:32;;;;;;;;;;;20.00;65.80;;;;;;4793711;29;19936;-80
2022/06/04 17:53:58;;;;;;;;;;;19.90;65.20;;;;;;4824037;29;19925;-78
2022/06/04 17:56:24;;;;;;;;;;;20.00;64.80;;;;;;4822405;29;20007;-78
2022/06/04 17:58:49;;;;;;;;;;;20.00;65.00;;;;;;4827073;29;19998;-77
2022/06/04 18:01:15;;;;;;;;;;;20.00;64.70;;;;;;4828241;29;19925;-78
2022/06/04 18:03:41;;;;;;;;;;;20.00;65.30;;;;;;4829533;29;20277;-80
2022/06/04 18:06:09;;;;;;;;;;;19.90;65.10;;;;;;4845696;29;19932;-79
2022/06/04 18:08:35;;;;;;;;;;;19.90;65.20;;;;;;4845070;29;20237;-78
2022/06/04 18:11:01;;;;;;;;;;;19.90;65.30;;;;;;4830135;29;20367;-80
2022/06/04 18:13:27;;;;;;;;;;;19.90;65.40;;;;;;4828103;29;19924;-78
2022/06/04 18:15:52;;;;;;;;;;;19.90;65.50;;;;;;4827149;29;19976;-79
2022/06/04 18:18:18;;;;;;;;;;;19.90;65.50;;;;;;4811075;29;19924;-78
2022/06/04 18:20:44;;;;;;;;;;;19.90;65.50;;;;;;4826842;29;19924;-79
2022/06/04 18:23:09;;;;;;;;;;;19.90;65.50;;;;;;4825224;29;20349;-79
2022/06/04 18:25:42;;;;;;;;;;;19.80;65.50;;;;;;4829080;29;19997;-79
2022/06/04 18:28:09;;;;;;;;;;;19.80;65.60;;;;;;4845147;29;19986;-81
2022/06/04 18:30:38;;;;;;;;;;;19.80;65.60;;;;;;4839554;29;19925;-78
2022/06/04 18:33:03;;;;;;;;;;;19.80;65.40;;;;;;4796960;29;19936;-80
2022/06/04 18:35:30;;;;;;;;;;;19.80;65.20;;;;;;4808600;29;19924;-79
2022/06/04 18:37:55;;;;;;;;;;;19.80;65.00;;;;;;4792828;29;20332;-77
2022/06/04 18:40:21;;;;;;;;;;;19.80;64.30;;;;;;4808523;29;19976;-79
2022/06/04 19:02:04;;;;;;;;;;;19.70;63.90;;;;;;4736064;30;20270;-82
2022/06/04 19:08:43;;;;;;;;;;;19.70;63.40;;;;;;4734734;30;20014;-81
2022/06/04 19:25:44;;;;;;;;;;;19.60;63.70;;;;;;4588801;30;19979;-81
2022/06/04 19:28:13;;;;;;;;;;;19.50;64.00;;;;;;4695589;30;20374;-81
2022/06/04 19:30:39;;;;;;;;;;;19.50;64.00;;;;;;4759782;29;19925;-81